LFOT 221130Z AUTO 23016KT 180V250 9999 FEW021 12/07 Q1030 NOSIG

ElémentsDécodage
LFOT Station météo située sur l'aérodrome de TOURS Val-de-Loire
221130Z émis le 22 du mois à 11h30 UTC
AUTO Bulletin édité par un automate
23016KT vent du 230°, 16 noeuds
180V250 vent de direction variable entre 180° et 250°
9999 visibilité horizontale supérieure à 10 Km
FEW021 nuages rares (1/8 à 2/8) à 2100 pieds
12/07 température 12°C, point de rosée 07°C
 soit une humidité relative de 71%
Q1030 la pression au niveau de la mer (QNH) est de 1030 hPa
NOSIG Pas de changement significatif prévu au cours des deux heures suivant l'heure de l'observation